createdAt,value
2018-05-23T00:02:17.745Z,56.86
2018-05-23T00:04:43.667Z,57.06
2018-05-23T00:07:09.597Z,57.47
2018-05-23T00:09:35.584Z,57.36
2018-05-23T00:12:01.723Z,58.42
2018-05-23T00:14:27.843Z,58.04
2018-05-23T00:16:53.923Z,58.02
2018-05-23T00:19:19.854Z,58.14
2018-05-23T00:21:45.824Z,58.36
2018-05-23T00:24:11.758Z,59.23
2018-05-23T00:26:37.754Z,58.23
2018-05-23T00:29:03.837Z,58.75
2018-05-23T00:31:29.872Z,58.75
2018-05-23T00:34:10.740Z,58.17
2018-05-23T00:36:36.700Z,58.93
2018-05-23T00:39:02.717Z,58.21
2018-05-23T00:41:28.632Z,59.02
2018-05-23T00:43:54.570Z,59.28
2018-05-23T00:46:20.488Z,59.82
2018-05-23T00:48:46.414Z,60.18
2018-05-23T00:51:12.387Z,60.07
2018-05-23T00:53:38.323Z,60.58
2018-05-23T00:56:04.789Z,59.56
2018-05-23T00:58:30.732Z,60.67
2018-05-23T01:00:56.691Z,61.06
2018-05-23T01:03:22.620Z,59.97
2018-05-23T01:05:48.575Z,60.78
2018-05-23T01:08:14.507Z,60.79
2018-05-23T01:10:40.472Z,60.43
2018-05-23T01:13:06.413Z,61.47
2018-05-23T01:15:32.405Z,61.22
2018-05-23T01:17:58.329Z,60.82
2018-05-23T01:20:24.303Z,60.80
2018-05-23T01:22:50.247Z,61.53
2018-05-23T01:25:16.185Z,61.94
2018-05-23T01:27:42.116Z,62.36
2018-05-23T01:30:08.017Z,62.28
2018-05-23T01:32:33.939Z,62.80
2018-05-23T01:34:59.853Z,62.95
2018-05-23T01:37:25.817Z,62.70
2018-05-23T01:39:51.764Z,62.77
2018-05-23T01:42:17.717Z,61.95
2018-05-23T01:44:43.624Z,62.66
2018-05-23T01:47:09.560Z,62.71
2018-05-23T01:49:35.488Z,62.69
2018-05-23T01:52:01.428Z,62.62
2018-05-23T01:54:27.350Z,63.26
2018-05-23T01:56:53.269Z,62.97
2018-05-23T01:59:19.204Z,63.72
2018-05-23T02:01:45.140Z,63.79
2018-05-23T02:04:11.086Z,63.86
2018-05-23T02:06:37.014Z,64.32
2018-05-23T02:09:02.996Z,64.39
2018-05-23T02:11:28.956Z,64.89
2018-05-23T02:13:54.924Z,65.30
2018-05-23T02:16:20.844Z,65.72
2018-05-23T02:18:46.756Z,65.73
2018-05-23T02:21:12.685Z,65.87
2018-05-23T02:23:38.599Z,65.74
2018-05-23T02:26:04.528Z,66.08
2018-05-23T02:28:30.441Z,65.84
2018-05-23T02:30:56.375Z,66.28
2018-05-23T02:33:22.306Z,65.93
2018-05-23T02:35:48.259Z,66.16
2018-05-23T02:38:14.173Z,66.93
2018-05-23T02:40:40.082Z,66.99
2018-05-23T02:43:06.032Z,66.70
2018-05-23T02:45:31.948Z,66.49
2018-05-23T02:47:57.901Z,67.10
2018-05-23T02:50:23.819Z,66.26
2018-05-23T02:52:49.765Z,67.44
2018-05-23T02:55:15.697Z,67.41
2018-05-23T02:57:41.626Z,66.83
2018-05-23T03:00:07.541Z,67.35
2018-05-23T03:02:33.487Z,67.51
2018-05-23T03:04:59.411Z,67.56
2018-05-23T03:07:25.316Z,67.72
2018-05-23T03:09:51.250Z,67.52
2018-05-23T03:12:17.185Z,67.96
2018-05-23T03:14:43.134Z,68.01
2018-05-23T03:17:09.049Z,68.07
2018-05-23T03:19:34.990Z,68.06
2018-05-23T03:22:00.946Z,68.30
2018-05-23T03:24:26.940Z,68.60
2018-05-23T03:26:52.876Z,68.02
2018-05-23T03:29:18.831Z,67.88
2018-05-23T03:31:44.771Z,67.93
2018-05-23T03:34:10.694Z,67.67
2018-05-23T03:36:36.616Z,67.54
2018-05-23T03:39:02.626Z,67.42
2018-05-23T03:41:28.550Z,67.75
2018-05-23T03:43:54.458Z,67.93
2018-05-23T03:46:20.390Z,67.58
2018-05-23T03:48:46.309Z,67.40
2018-05-23T03:51:12.232Z,66.99
2018-05-23T03:53:38.139Z,66.80
2018-05-23T03:56:04.063Z,66.72
2018-05-23T03:58:29.979Z,66.65
2018-05-23T04:01:08.161Z,67.20
2018-05-23T04:03:46.245Z,67.32
2018-05-23T04:09:05.863Z,67.66
2018-05-23T04:11:31.867Z,67.65
2018-05-23T04:13:57.725Z,67.50
2018-05-23T04:16:23.635Z,67.74
2018-05-23T04:18:49.599Z,68.06
2018-05-23T04:21:15.567Z,67.61
2018-05-23T04:23:41.507Z,67.88
2018-05-23T04:26:07.411Z,68.34
2018-05-23T04:28:33.343Z,68.39
2018-05-23T04:30:59.251Z,69.13
2018-05-23T04:33:25.186Z,69.55
2018-05-23T04:35:51.109Z,69.57
2018-05-23T04:38:17.057Z,67.73
2018-05-23T04:40:42.992Z,68.08
2018-05-23T04:43:08.957Z,68.09
2018-05-23T04:45:34.898Z,68.38
2018-05-23T04:48:00.820Z,68.44
2018-05-23T04:50:26.738Z,68.02
2018-05-23T04:52:52.664Z,68.02
2018-05-23T04:55:18.604Z,67.72
2018-05-23T04:57:44.542Z,67.57
2018-05-23T05:00:10.477Z,67.51
2018-05-23T05:02:36.408Z,67.36
2018-05-23T05:05:02.385Z,67.43
2018-05-23T05:07:28.305Z,67.28
2018-05-23T05:09:54.220Z,67.49
2018-05-23T05:12:20.163Z,67.35
2018-05-23T05:14:46.035Z,67.50
2018-05-23T05:17:11.972Z,67.53
2018-05-23T05:19:37.894Z,67.27
2018-05-23T05:22:03.837Z,67.12
2018-05-23T05:24:29.773Z,67.16
2018-05-23T05:26:55.699Z,67.71
2018-05-23T05:29:21.616Z,66.86
2018-05-23T05:31:47.553Z,67.07
2018-05-23T05:34:13.522Z,67.46
2018-05-23T05:36:39.464Z,66.66
2018-05-23T05:39:05.424Z,66.01
2018-05-23T05:41:31.376Z,67.48
2018-05-23T05:43:57.293Z,66.38
2018-05-23T05:46:23.238Z,66.35
2018-05-23T05:48:49.190Z,65.71
2018-05-23T05:51:15.105Z,65.89
2018-05-23T05:53:41.125Z,65.72
2018-05-23T05:56:07.003Z,65.53
2018-05-23T05:58:32.940Z,66.32
2018-05-23T06:00:58.861Z,64.99
2018-05-23T06:03:24.793Z,65.93
2018-05-23T06:05:50.718Z,64.78
2018-05-23T06:08:16.635Z,65.50
2018-05-23T06:10:42.567Z,65.01
2018-05-23T06:13:08.478Z,65.40
2018-05-23T06:15:34.422Z,65.18
2018-05-23T06:18:00.348Z,64.76
2018-05-23T06:20:26.283Z,64.01
2018-05-23T06:22:52.183Z,65.17
2018-05-23T06:25:18.101Z,65.46
2018-05-23T06:27:44.053Z,64.55
2018-05-23T06:30:09.983Z,63.83
2018-05-23T06:32:35.893Z,63.88
2018-05-23T06:35:01.801Z,63.41
2018-05-23T06:37:27.738Z,63.42
2018-05-23T06:39:53.683Z,63.10
2018-05-23T06:42:19.625Z,62.37
2018-05-23T06:44:45.551Z,61.94
2018-05-23T06:47:11.475Z,61.43
2018-05-23T06:49:37.393Z,60.80
2018-05-23T06:52:03.324Z,61.03
2018-05-23T06:54:29.237Z,59.79
2018-05-23T06:56:55.136Z,59.97
2018-05-23T06:59:21.080Z,59.46
2018-05-23T07:01:47.040Z,59.56
2018-05-23T07:04:12.957Z,58.83
2018-05-23T07:06:38.867Z,58.03
2018-05-23T07:09:04.858Z,58.88
2018-05-23T07:11:30.789Z,59.24
2018-05-23T07:13:56.692Z,59.50
2018-05-23T07:16:22.627Z,58.96
2018-05-23T07:18:48.550Z,57.91
2018-05-23T07:21:14.474Z,57.82
2018-05-23T07:23:40.404Z,57.31
2018-05-23T07:26:06.344Z,57.28
2018-05-23T07:28:32.262Z,56.91
2018-05-23T07:30:58.198Z,56.23
2018-05-23T07:33:24.125Z,56.16
2018-05-23T07:35:50.076Z,55.88
2018-05-23T07:38:16.044Z,56.37
2018-05-23T07:40:41.920Z,56.96
2018-05-23T07:43:07.860Z,56.26
2018-05-23T07:45:33.781Z,55.70
2018-05-23T07:47:59.734Z,55.53
2018-05-23T07:50:25.641Z,55.73
2018-05-23T07:52:51.589Z,55.32
2018-05-23T07:55:17.501Z,55.50
2018-05-23T07:57:43.436Z,55.18
2018-05-23T08:00:09.348Z,55.22
2018-05-23T08:02:35.284Z,54.74
2018-05-23T08:05:01.195Z,54.40
2018-05-23T08:07:27.100Z,54.33
2018-05-23T08:09:53.031Z,54.80
2018-05-23T08:12:18.953Z,53.93
2018-05-23T08:14:44.863Z,52.65
2018-05-23T08:17:10.781Z,53.92
2018-05-23T08:19:36.709Z,53.57
2018-05-23T08:22:02.619Z,51.59
2018-05-23T08:24:28.563Z,51.99
2018-05-23T08:26:54.487Z,52.26
2018-05-23T08:29:20.433Z,52.04
2018-05-23T08:31:46.353Z,51.07
2018-05-23T08:34:12.286Z,51.59
2018-05-23T08:36:38.211Z,51.93
2018-05-23T08:39:05.023Z,50.64
2018-05-23T08:41:30.948Z,50.87
2018-05-23T08:43:56.844Z,50.37
2018-05-23T08:46:22.784Z,50.31
2018-05-23T08:48:48.679Z,50.30
2018-05-23T08:51:14.600Z,50.03
2018-05-23T08:53:40.528Z,50.25
2018-05-23T08:56:06.465Z,51.50
2018-05-23T08:58:32.376Z,50.00
2018-05-23T09:00:58.324Z,49.82
2018-05-23T09:03:24.239Z,49.42
2018-05-23T09:05:50.161Z,48.83
2018-05-23T09:08:16.103Z,49.18
2018-05-23T09:10:42.038Z,50.14
2018-05-23T09:13:07.969Z,52.04
2018-05-23T09:15:33.888Z,49.48
2018-05-23T09:17:59.808Z,49.38
2018-05-23T09:20:25.718Z,49.42
2018-05-23T09:22:51.636Z,50.39
2018-05-23T09:25:17.635Z,49.33
2018-05-23T09:27:43.525Z,49.49
2018-05-23T09:30:09.477Z,48.89
2018-05-23T09:32:35.486Z,49.35
2018-05-23T09:35:01.353Z,48.20
2018-05-23T09:37:27.306Z,49.32
2018-05-23T09:39:53.229Z,48.62
2018-05-23T09:42:19.149Z,48.11
2018-05-23T09:44:45.077Z,47.35
2018-05-23T09:47:10.979Z,45.97
2018-05-23T09:49:36.904Z,45.67
2018-05-23T09:52:02.867Z,44.33
2018-05-23T09:54:28.784Z,44.60
2018-05-23T09:56:54.704Z,45.19
2018-05-23T09:59:20.648Z,44.08
2018-05-23T10:01:46.587Z,44.02
2018-05-23T10:04:12.497Z,44.45
2018-05-23T10:06:38.425Z,42.05
2018-05-23T10:09:04.411Z,43.23
2018-05-23T10:11:30.370Z,41.83
2018-05-23T10:13:56.286Z,41.82
2018-05-23T10:16:22.249Z,41.56
2018-05-23T10:18:48.160Z,39.07
2018-05-23T10:21:14.074Z,39.00
2018-05-23T10:23:40.012Z,40.61
2018-05-23T10:26:05.931Z,41.62
2018-05-23T10:28:31.868Z,41.16
2018-05-23T10:30:57.817Z,40.86
2018-05-23T10:33:23.812Z,39.18
2018-05-23T10:35:49.671Z,39.23
2018-05-23T10:38:15.604Z,38.37
2018-05-23T10:40:41.503Z,38.75
2018-05-23T10:43:07.422Z,37.91
2018-05-23T10:45:33.362Z,37.04
2018-05-23T10:47:59.275Z,36.58
2018-05-23T10:50:25.214Z,35.76
2018-05-23T10:52:51.136Z,33.93
2018-05-23T10:55:17.066Z,35.80
2018-05-23T10:57:42.994Z,35.20
2018-05-23T11:00:09.005Z,34.56
2018-05-23T11:02:34.933Z,34.47
2018-05-23T11:05:00.860Z,33.69
2018-05-23T11:07:26.813Z,33.90
2018-05-23T11:09:52.737Z,34.26
2018-05-23T11:12:18.686Z,34.51
2018-05-23T11:14:44.714Z,32.68
2018-05-23T11:17:10.580Z,33.34
2018-05-23T11:19:36.495Z,33.74
2018-05-23T11:22:02.437Z,34.01
2018-05-23T11:24:28.357Z,33.25
2018-05-23T11:26:54.269Z,32.80
2018-05-23T11:29:20.185Z,32.46
2018-05-23T11:31:46.114Z,32.67
2018-05-23T11:34:12.076Z,31.99
2018-05-23T11:36:38.006Z,31.86
2018-05-23T11:39:03.994Z,31.71
2018-05-23T11:41:29.917Z,30.79
2018-05-23T11:43:55.857Z,30.28
2018-05-23T11:46:21.782Z,30.71
2018-05-23T11:48:47.732Z,30.42
2018-05-23T11:51:13.668Z,31.57
2018-05-23T11:53:39.611Z,30.06
2018-05-23T11:56:05.534Z,30.32
2018-05-23T11:58:31.441Z,30.96
2018-05-23T12:00:57.372Z,30.67
2018-05-23T12:03:23.293Z,31.16
2018-05-23T12:05:49.283Z,31.13
2018-05-23T12:08:15.236Z,29.85
2018-05-23T12:10:41.255Z,30.22
2018-05-23T12:13:07.099Z,29.93
2018-05-23T12:15:33.055Z,31.62
2018-05-23T12:17:58.952Z,31.25
2018-05-23T12:20:24.870Z,30.36
2018-05-23T12:22:50.809Z,29.15
2018-05-23T12:25:31.690Z,28.99
2018-05-23T12:27:57.628Z,30.24
2018-05-23T12:30:23.558Z,28.91
2018-05-23T12:32:49.524Z,29.24
2018-05-23T12:35:15.492Z,29.48
2018-05-23T12:37:41.444Z,30.80
2018-05-23T12:40:07.369Z,29.26
2018-05-23T12:42:33.301Z,31.11
2018-05-23T12:44:59.203Z,29.87
2018-05-23T12:47:25.149Z,30.09
2018-05-23T12:49:51.081Z,29.76
2018-05-23T12:52:17.028Z,29.18
2018-05-23T12:54:42.945Z,30.18
2018-05-23T12:57:08.885Z,29.46
2018-05-23T12:59:34.817Z,30.88
2018-05-23T13:02:00.729Z,31.17
2018-05-23T13:04:26.683Z,29.57
2018-05-23T13:06:52.612Z,28.86
2018-05-23T13:09:18.559Z,29.37
2018-05-23T13:11:44.507Z,29.75
2018-05-23T13:14:10.462Z,28.69
2018-05-23T13:16:36.417Z,29.31
2018-05-23T13:19:02.352Z,28.61
2018-05-23T13:21:28.277Z,29.46
2018-05-23T13:23:54.234Z,28.83
2018-05-23T13:26:20.176Z,30.66
2018-05-23T13:28:46.139Z,32.58
2018-05-23T13:31:12.172Z,32.49
2018-05-23T13:33:38.050Z,31.43
2018-05-23T13:36:04.004Z,31.04
2018-05-23T13:38:29.974Z,31.95
2018-05-23T13:40:55.988Z,32.25
2018-05-23T13:43:21.946Z,32.86
2018-05-23T13:45:48.034Z,33.00
2018-05-23T13:48:13.980Z,32.19
2018-05-23T13:50:39.924Z,32.19
2018-05-23T13:53:05.881Z,32.40
2018-05-23T13:55:31.845Z,32.64
2018-05-23T13:57:57.782Z,33.17
2018-05-23T14:00:23.696Z,33.59
2018-05-23T14:02:49.634Z,33.34
2018-05-23T14:05:15.576Z,33.24
2018-05-23T14:07:41.528Z,33.27
2018-05-23T14:10:07.513Z,33.74
2018-05-23T14:12:33.509Z,32.81
2018-05-23T14:14:59.446Z,32.59
2018-05-23T14:17:25.427Z,32.55
2018-05-23T14:19:51.369Z,32.45
2018-05-23T14:22:17.317Z,33.61
2018-05-23T14:24:43.261Z,31.92
2018-05-23T14:27:09.226Z,32.55
2018-05-23T14:29:35.165Z,31.45
2018-05-23T14:32:01.081Z,31.44
2018-05-23T14:34:27.042Z,30.23
2018-05-23T14:36:52.974Z,30.74
2018-05-23T14:39:18.952Z,31.08
2018-05-23T14:41:44.883Z,30.45
2018-05-23T14:44:10.824Z,29.36
2018-05-23T14:46:36.753Z,30.47
2018-05-23T14:49:02.719Z,30.06
2018-05-23T14:51:28.712Z,29.61
2018-05-23T14:53:54.638Z,29.14
2018-05-23T14:56:20.697Z,30.27
2018-05-23T14:58:46.620Z,29.67
2018-05-23T15:01:12.566Z,29.54
2018-05-23T15:03:38.498Z,28.96
2018-05-23T15:06:04.485Z,28.48
2018-05-23T15:08:30.498Z,29.54
2018-05-23T15:10:56.394Z,28.27
2018-05-23T15:20:06.103Z,29.15
2018-05-23T15:22:32.013Z,28.96
2018-05-23T15:24:57.957Z,27.83
2018-05-23T15:27:23.912Z,29.50
2018-05-23T15:29:49.848Z,28.95
2018-05-23T15:32:15.880Z,28.43
2018-05-23T15:34:41.802Z,29.89
2018-05-23T15:37:07.783Z,30.47
2018-05-23T15:39:33.731Z,30.14
2018-05-23T15:41:59.647Z,30.07
2018-05-23T15:44:25.613Z,28.71
2018-05-23T15:46:51.582Z,29.46
2018-05-23T15:49:17.591Z,30.56
2018-05-23T15:51:43.478Z,31.01
2018-05-23T15:54:09.688Z,30.90
2018-05-23T15:56:35.626Z,31.31
2018-05-23T15:59:01.564Z,31.50
2018-05-23T16:01:27.486Z,31.55
2018-05-23T16:03:53.440Z,31.99
2018-05-23T16:06:19.393Z,32.73
2018-05-23T16:08:45.340Z,32.80
2018-05-23T16:11:11.340Z,32.90
2018-05-23T16:13:37.260Z,32.56
2018-05-23T16:16:03.227Z,32.46
2018-05-23T16:18:29.195Z,32.91
2018-05-23T16:20:55.145Z,31.84
2018-05-23T16:23:21.135Z,31.67
2018-05-23T16:25:47.100Z,31.12
2018-05-23T16:28:13.337Z,28.75
2018-05-23T16:30:39.482Z,28.87
2018-05-23T16:33:05.546Z,29.19
2018-05-23T16:35:31.677Z,28.37
2018-05-23T16:37:57.895Z,27.83
2018-05-23T16:40:24.016Z,26.92
2018-05-23T16:42:50.478Z,27.77
2018-05-23T16:45:16.474Z,27.09
2018-05-23T16:47:42.715Z,27.75
2018-05-23T16:50:08.913Z,28.37
2018-05-23T16:52:34.859Z,30.53
2018-05-23T16:55:00.804Z,31.87
2018-05-23T16:57:26.754Z,31.02
2018-05-23T16:59:52.683Z,31.81
2018-05-23T17:02:18.660Z,31.89
2018-05-23T17:04:44.613Z,32.32
2018-05-23T17:07:10.646Z,32.23
2018-05-23T17:09:36.641Z,31.89
2018-05-23T17:12:02.606Z,32.19
2018-05-23T17:14:28.672Z,32.94
2018-05-23T17:16:54.637Z,32.54
2018-05-23T17:19:20.683Z,32.93
2018-05-23T17:21:46.653Z,32.99
2018-05-23T17:24:12.643Z,33.43
2018-05-23T17:26:38.616Z,33.71
2018-05-23T17:29:04.605Z,34.33
2018-05-23T17:31:30.620Z,34.55
2018-05-23T17:33:56.597Z,34.78
2018-05-23T17:36:22.547Z,35.62
2018-05-23T17:38:48.550Z,35.09
2018-05-23T17:41:14.552Z,35.43
2018-05-23T17:43:40.543Z,35.38
2018-05-23T17:46:06.545Z,35.42
2018-05-23T17:48:32.553Z,35.99
2018-05-23T17:50:58.671Z,35.89
2018-05-23T17:53:24.648Z,36.63
2018-05-23T17:55:50.689Z,37.05
2018-05-23T17:58:17.388Z,37.40
2018-05-23T18:00:43.372Z,37.95
2018-05-23T18:03:10.202Z,38.43
2018-05-23T18:05:36.302Z,38.19
2018-05-23T18:08:02.281Z,38.51
2018-05-23T18:10:28.221Z,38.60
2018-05-23T18:12:54.208Z,39.39
2018-05-23T18:15:20.233Z,38.93
2018-05-23T18:17:46.270Z,39.44
2018-05-23T18:20:12.250Z,39.29
2018-05-23T18:22:38.273Z,39.54
2018-05-23T18:25:04.300Z,40.05
2018-05-23T18:27:30.391Z,40.29
2018-05-23T18:29:56.377Z,40.14
2018-05-23T18:32:22.416Z,40.46
2018-05-23T18:34:48.444Z,40.82
2018-05-23T18:37:14.461Z,41.11
2018-05-23T18:39:40.483Z,41.29
2018-05-23T18:45:00.299Z,41.52
2018-05-23T18:47:26.305Z,42.45
2018-05-23T18:49:52.324Z,42.53
2018-05-23T18:52:18.418Z,43.10
2018-05-23T18:54:44.407Z,43.20
2018-05-23T18:57:10.417Z,43.22
2018-05-23T18:59:38.332Z,43.09
2018-05-23T19:02:04.298Z,43.36
2018-05-23T19:04:30.232Z,43.59
2018-05-23T19:06:56.231Z,43.68
2018-05-23T19:09:23.020Z,43.48
2018-05-23T19:11:49.048Z,43.80
2018-05-23T19:14:15.044Z,43.95
2018-05-23T19:16:41.808Z,44.34
2018-05-23T19:19:07.856Z,44.58
2018-05-23T19:21:33.865Z,44.27
2018-05-23T19:23:59.885Z,44.69
2018-05-23T19:26:25.911Z,44.77
2018-05-23T19:28:51.942Z,45.38
2018-05-23T19:31:18.047Z,44.57
2018-05-23T19:33:44.022Z,45.20
2018-05-23T19:36:10.018Z,44.61
2018-05-23T19:38:36.021Z,44.87
2018-05-23T19:41:02.065Z,44.67
2018-05-23T19:43:28.286Z,44.72
2018-05-23T19:45:54.700Z,44.79
2018-05-23T19:48:20.629Z,45.36
2018-05-23T19:50:47.693Z,45.54
2018-05-23T19:53:13.644Z,45.47
2018-05-23T19:55:40.644Z,45.79
2018-05-23T19:58:06.629Z,46.01
2018-05-23T20:00:32.636Z,46.06
2018-05-23T20:02:58.605Z,46.07
2018-05-23T20:05:24.649Z,46.20
2018-05-23T20:07:51.269Z,46.58
2018-05-23T20:10:17.279Z,46.69
2018-05-23T20:12:43.287Z,46.59
2018-05-23T20:15:09.278Z,46.81
2018-05-23T20:17:35.289Z,47.15
2018-05-23T20:20:02.365Z,46.65
2018-05-23T20:22:29.346Z,46.79
2018-05-23T20:24:55.349Z,46.76
2018-05-23T20:27:21.474Z,46.63
2018-05-23T20:29:47.547Z,46.87
2018-05-23T20:32:13.526Z,46.88
2018-05-23T20:34:39.538Z,46.84
2018-05-23T20:37:05.504Z,46.88
2018-05-23T20:39:31.486Z,46.79
2018-05-23T20:41:57.449Z,46.78
2018-05-23T20:44:23.395Z,47.06
2018-05-23T20:46:49.338Z,47.12
2018-05-23T20:49:15.342Z,47.38
2018-05-23T20:51:42.392Z,47.59
2018-05-23T20:54:09.344Z,47.43
2018-05-23T20:56:35.358Z,47.75
2018-05-23T20:59:01.385Z,47.42
2018-05-23T21:01:27.263Z,47.52
2018-05-23T21:03:53.256Z,47.41
2018-05-23T21:06:19.231Z,47.64
2018-05-23T21:08:45.178Z,47.44
2018-05-23T21:11:11.114Z,47.61
2018-05-23T21:13:37.102Z,47.43
2018-05-23T21:16:03.103Z,47.43
2018-05-23T21:18:29.019Z,47.62
2018-05-23T21:20:55.001Z,47.93
2018-05-23T21:23:21.020Z,48.11
2018-05-23T21:25:47.754Z,47.97
2018-05-23T21:28:13.742Z,48.53
2018-05-23T21:30:39.731Z,48.61
2018-05-23T21:33:05.695Z,48.62
2018-05-23T21:35:31.679Z,48.83
2018-05-23T21:37:57.639Z,49.00
2018-05-23T21:40:23.574Z,49.40
2018-05-23T21:42:49.518Z,49.72
2018-05-23T21:45:15.427Z,49.75
2018-05-23T21:47:41.380Z,50.27
2018-05-23T21:50:07.355Z,50.33
2018-05-23T21:52:33.314Z,50.56
2018-05-23T21:54:59.276Z,50.72
2018-05-23T21:57:25.178Z,50.98
2018-05-23T21:59:51.110Z,51.00
2018-05-23T22:02:17.040Z,51.34
2018-05-23T22:04:42.975Z,51.64
2018-05-23T22:07:08.900Z,51.85
2018-05-23T22:09:34.850Z,51.92
2018-05-23T22:12:00.746Z,52.22
2018-05-23T22:14:26.668Z,52.45
2018-05-23T22:16:52.600Z,52.55
2018-05-23T22:19:18.493Z,52.84
2018-05-23T22:21:44.456Z,53.26
2018-05-23T22:24:10.376Z,53.54
2018-05-23T22:26:36.310Z,53.54
2018-05-23T22:29:02.240Z,53.77
2018-05-23T22:31:28.165Z,54.01
2018-05-23T22:33:54.095Z,54.16
2018-05-23T22:36:20.036Z,54.52
2018-05-23T22:38:45.950Z,54.50
2018-05-23T22:41:11.882Z,54.45
2018-05-23T22:43:37.812Z,54.64
2018-05-23T22:46:03.730Z,54.93
2018-05-23T22:48:29.683Z,55.20
2018-05-23T22:50:55.596Z,55.30
2018-05-23T22:53:21.577Z,55.33
2018-05-23T22:55:47.510Z,55.64
2018-05-23T22:58:13.459Z,55.64
2018-05-23T23:00:39.369Z,55.85
2018-05-23T23:03:05.291Z,56.23
2018-05-23T23:05:31.219Z,56.10
2018-05-23T23:07:57.112Z,56.49
2018-05-23T23:10:23.056Z,56.66
2018-05-23T23:12:48.953Z,56.85
2018-05-23T23:15:14.901Z,56.95
2018-05-23T23:17:40.823Z,57.18
2018-05-23T23:20:06.734Z,57.49
2018-05-23T23:22:37.679Z,57.53
2018-05-23T23:25:03.604Z,57.69
2018-05-23T23:27:29.520Z,57.96
2018-05-23T23:29:55.444Z,57.98
2018-05-23T23:32:21.370Z,58.19
2018-05-23T23:34:47.294Z,58.25
2018-05-23T23:37:13.240Z,58.62
2018-05-23T23:39:39.172Z,58.78
2018-05-23T23:42:05.097Z,58.94
2018-05-23T23:44:31.047Z,59.04
2018-05-23T23:46:56.956Z,59.25
2018-05-23T23:49:22.883Z,59.55
2018-05-23T23:51:48.810Z,59.70
2018-05-23T23:54:14.766Z,59.85
2018-05-23T23:56:40.714Z,59.88
2018-05-23T23:59:06.654Z,59.76
